首页
METAR-TAF:

METAR-TAF

机场 :

基加利国际机场

吉佳利, 卢旺达

纬度: 01-58S, 经度: 030-07E, 海拔: 1491米

当前天气观测

该预报发布于25分钟前的22:00 UTC
风速2节,风向
温度 21°C
湿度 60%
气压 1020 hPa
能见度10公里或以上
少量云层高于2600英尺

METAR: HRYR 152200Z 18002KT 9999 FEW026 21/13 Q1020 NOSIG

时间: 00:25 (22:25 UTC)

预报

该预报发布于5小时和25分钟前的17:00 UTC
预报有效从15日的 18点(UTC)到 16日的 24点(UTC)
风速6节,风向
能见度10公里或以上
少量云层高于2500英尺
成为
从 16日的 07点(UTC)到 16日的 10点(UTC)
风速8节,风向
散云层高于2500英尺
成为
从 16日的 17点(UTC)到 16日的 20点(UTC)
风速6节,风向西转西南

TAF: HRYR 151700Z 1518/1624 09006KT 9999 FEW025 BECMG 1607/1610 18008KT SCT025 BECMG 1617/1620 25006KT

超过4000个机场的气象观测和天气预报(METAR&TAF报告)。

可查询的气象台以黄色和红色小点在地图上表示。

将鼠标移到小点上方,可查看气象台名称。

然后点击查看天气观测和预报。

如需切换地图:点击带黑十字的绿色按钮放大地图;点击带横线的绿色按钮缩小地图;或者点击绿色箭头查看邻近地区的地图。


METAR-TAF: